This is the latest recevied weather packets stored in our database for station/object DL1BWU. If no packets are shown the sender has not sent any weather packets the latest 10 day(s).
| Time | Temp. | Humidity | Pressure | Rain* | Wind** | Luminosity | Snow |
|---|---|---|---|---|---|---|---|
| 1777956909 | 12.78° C | 70% | 1011.2 hPa | 0 mm | - | - | - |
| 1777956309 | 12.78° C | 70% | 1010.5 hPa | 0 mm | - | - | - |
| 1777955709 | 12.78° C | 70% | 1010.3 hPa | 0 mm | - | - | - |
| 1777955109 | 12.78° C | 70% | 1010.3 hPa | 0 mm | - | - | - |
| 1777954509 | 12.78° C | 70% | 1010.4 hPa | 0 mm | - | - | - |
| 1777953909 | 12.78° C | 70% | 1010.4 hPa | 0 mm | - | - | - |
| 1777943710 | 12.78° C | 69% | 1011 hPa | 0 mm | - | - | - |
| 1777943110 | 12.78° C | 69% | 1011.1 hPa | 0 mm | - | - | - |
| 1777942510 | 12.78° C | 69% | 1011.3 hPa | 0 mm | - | - | - |
| 1777940710 | 12.78° C | 68% | 1011.2 hPa | 0 mm | - | - | - |
| 1777940110 | 12.78° C | 68% | 1011.4 hPa | 0 mm | - | - | - |
| 1777939510 | 12.78° C | 68% | 1011.3 hPa | 0 mm | - | - | - |
| 1777920311 | 18.33° C | 59% | 1011.7 hPa | 0 mm | - | - | - |
| 1777919711 | 18.89° C | 57% | 1011.7 hPa | 0 mm | - | - | - |
| 1777917911 | 19.44° C | 56% | 1011.6 hPa | 0 mm | - | - | - |
| 1777917311 | 20° C | 55% | 1011.5 hPa | 0 mm | - | - | - |
| 1777916111 | 20° C | 55% | 1011.3 hPa | 0 mm | - | - | - |
| 1777915511 | 20.56° C | 55% | 1011.3 hPa | 0 mm | - | - | - |
| 1777914311 | 20.56° C | 54% | 1011.4 hPa | 0 mm | - | - | - |
| 1777910711 | 21.11° C | 52% | 1011.4 hPa | 0 mm | - | - | - |
| 1777908311 | 22.22° C | 49% | 1011.4 hPa | 0 mm | - | - | - |
| 1777906511 | 22.22° C | 49% | 1011.4 hPa | 0 mm | - | - | - |
| 1777904711 | 22.78° C | 50% | 1011.7 hPa | 0 mm | - | - | - |
| 1777901711 | 21.67° C | 52% | 1012.1 hPa | 0 mm | - | - | - |
| 1777901111 | 21.67° C | 52% | 1012.1 hPa | 0 mm | - | - | - |
* Rain latest hour (hover to see other rain measurements)
** Current wind speed in m/s (hover to see current wind gust speed)